Chippewa County International Airport Sault Ste Marie US
ICAO: KCIU
IATA: CIU
Category: Medium
Scheduled Services: Yes

Elevation: 800 ft
TransAlt. 18000 ft.

Airport Communications:
AWOS 3:127.575
TORONTO CNTR:132.65
GREEN BAY RDO:123.65
CTAF/UNICOM:123

KCIU Zoom In..

If you have problems with the map follow the link
https://www.worldairports.se/pages/airport.php?
ICAO=KCIU

Runways:

(A) RW 09 length 5000 ft width 75 ft
---- / hdg 96

(B) RW 16 length 7201 ft width 200 ft
ILS 110.30 / hdg 156

(C) RW 27 length 5000 ft width 75 ft
---- / hdg 276

(D) RW 34 length 7201 ft width 200 ft
---- / hdg 336

Location; KCIU
Day. 19 / Time. 02.56 Zulu
* Altimeter: 29.58
* Temperature: -10° c. -14°f.
* Wind from: 030° Speed 07 kn.
Dewpoint: -12° c.
Visibility: 8 Statute Miles.
Clouds: Broken 2700 ft.
Clouds: Overcast 1000 ft.
Conditions: Light Snow.

KCIU 190256Z AUTO 03007KT 8SM -SN BKN027 OVC100 M10/M12 A2958 RMK AO2 SLP028 P0000 60000 T11001117 51008 FZRANO


Wind From 030°
Speed 07 kn.

 
 
jpsmedia worldairports.se 2020   terms of use